Time;durP1;ratioP1;P1;durP2;ratioP2;P2;SDS_P1;SDS_P2;PMS_P1;PMS_P2;Temp;Humidity;BMP_temperature;BMP_pressure;BME280_temperature;BME280_humidity;BME280_pressure;Samples;Min_cycle;Max_cycle;Signal;HPM_P1;HPM_P2
2023/07/12 00:02:24;;;;;;;;;;;27.10;63.60;;;;;;4994623;28;19933;-69
2023/07/12 00:04:51;;;;;;;;;;;27.10;63.80;;;;;;4982515;28;19936;-69
2023/07/12 00:07:18;;;;;;;;;;;27.10;63.90;;;;;;4996935;28;19930;-69
2023/07/12 00:09:45;;;;;;;;;;;27.00;63.80;;;;;;4987819;28;19949;-68
2023/07/12 00:12:13;;;;;;;;;;;27.00;64.00;;;;;;4989312;28;19929;-72
2023/07/12 00:14:40;;;;;;;;;;;27.00;64.00;;;;;;4995358;28;19930;-73
2023/07/12 00:17:09;;;;;;;;;;;27.00;64.10;;;;;;4998289;28;19930;-72
2023/07/12 00:19:35;;;;;;;;;;;27.00;64.20;;;;;;5005316;28;20331;-72
2023/07/12 00:22:03;;;;;;;;;;;27.00;64.30;;;;;;5005493;28;19929;-69
2023/07/12 00:24:30;;;;;;;;;;;26.90;64.30;;;;;;5005825;28;20023;-69
2023/07/12 00:26:58;;;;;;;;;;;26.90;64.40;;;;;;5000379;28;19929;-71
2023/07/12 00:29:25;;;;;;;;;;;26.80;64.40;;;;;;5005974;28;19937;-71
2023/07/12 00:31:52;;;;;;;;;;;26.80;64.50;;;;;;5004983;28;19933;-71
2023/07/12 00:34:19;;;;;;;;;;;26.80;64.60;;;;;;5005459;28;20350;-71
2023/07/12 00:36:45;;;;;;;;;;;26.80;64.70;;;;;;5004752;28;20028;-71
2023/07/12 00:39:12;;;;;;;;;;;26.70;64.70;;;;;;5004304;28;19933;-71
2023/07/12 00:41:48;;;;;;;;;;;26.70;64.80;;;;;;5001921;28;20270;-71
2023/07/12 00:44:18;;;;;;;;;;;26.70;64.90;;;;;;5003050;28;19936;-71
2023/07/12 00:46:48;;;;;;;;;;;26.60;64.90;;;;;;5003794;28;19984;-71
2023/07/12 00:49:14;;;;;;;;;;;26.60;65.00;;;;;;5003341;28;19984;-71
2023/07/12 00:51:45;;;;;;;;;;;26.60;65.00;;;;;;5003743;28;19930;-72
2023/07/12 00:54:12;;;;;;;;;;;26.60;65.10;;;;;;5004554;28;19933;-71
2023/07/12 00:56:39;;;;;;;;;;;26.50;65.20;;;;;;5003864;28;19933;-71
2023/07/12 00:59:07;;;;;;;;;;;26.50;65.20;;;;;;5002875;28;19929;-72
2023/07/12 01:01:35;;;;;;;;;;;26.50;65.30;;;;;;5003839;28;19933;-71
2023/07/12 01:04:03;;;;;;;;;;;26.50;65.30;;;;;;5006082;28;19929;-71
2023/07/12 01:06:30;;;;;;;;;;;26.50;65.40;;;;;;5008956;28;19929;-70
2023/07/12 01:09:00;;;;;;;;;;;26.40;65.30;;;;;;5009198;28;19929;-71
2023/07/12 01:11:26;;;;;;;;;;;26.40;65.40;;;;;;5013975;28;19929;-71
2023/07/12 01:13:53;;;;;;;;;;;26.30;65.40;;;;;;5008935;28;20935;-71
2023/07/12 01:16:21;;;;;;;;;;;26.40;66.30;;;;;;5000054;28;19968;-71
2023/07/12 01:18:47;;;;;;;;;;;26.30;65.50;;;;;;5008309;28;19929;-71
2023/07/12 01:21:17;;;;;;;;;;;26.30;65.60;;;;;;5008996;28;20706;-71
2023/07/12 01:23:44;;;;;;;;;;;26.30;65.60;;;;;;5008355;28;19979;-71
2023/07/12 01:26:16;;;;;;;;;;;26.20;65.60;;;;;;5006913;28;19934;-70
2023/07/12 01:28:43;;;;;;;;;;;26.20;65.70;;;;;;5008623;28;19929;-71
2023/07/12 01:31:09;;;;;;;;;;;26.20;65.80;;;;;;5001002;28;19934;-71
2023/07/12 01:33:36;;;;;;;;;;;26.20;65.80;;;;;;4984730;28;20474;-70
2023/07/12 01:36:03;;;;;;;;;;;26.20;65.80;;;;;;4988889;28;20334;-72
2023/07/12 01:38:30;;;;;;;;;;;26.20;65.90;;;;;;4989331;28;20489;-71
2023/07/12 01:40:57;;;;;;;;;;;26.10;65.90;;;;;;4988134;28;19937;-71
2023/07/12 01:43:23;;;;;;;;;;;26.10;65.90;;;;;;4990002;28;19972;-71
2023/07/12 01:45:50;;;;;;;;;;;26.10;66.00;;;;;;4994049;28;20292;-72
2023/07/12 01:48:16;;;;;;;;;;;26.00;66.00;;;;;;5006448;28;20447;-71
2023/07/12 01:50:43;;;;;;;;;;;26.00;66.00;;;;;;5005038;28;19933;-71
2023/07/12 01:53:10;;;;;;;;;;;26.00;66.10;;;;;;5007818;28;19936;-71
2023/07/12 01:55:38;;;;;;;;;;;26.00;66.20;;;;;;5011250;28;19936;-72
2023/07/12 01:58:04;;;;;;;;;;;25.90;66.10;;;;;;5006698;28;19984;-71
2023/07/12 02:00:31;;;;;;;;;;;25.90;66.20;;;;;;5007163;28;20520;-71
2023/07/12 02:02:57;;;;;;;;;;;25.90;66.30;;;;;;5007336;28;20907;-70
2023/07/12 02:05:24;;;;;;;;;;;25.80;66.30;;;;;;5008935;28;19983;-71
2023/07/12 02:07:52;;;;;;;;;;;25.80;66.40;;;;;;5002207;28;19929;-70
2023/07/12 02:10:20;;;;;;;;;;;25.80;66.40;;;;;;5008357;28;20318;-69
2023/07/12 02:12:47;;;;;;;;;;;25.80;66.50;;;;;;5007577;28;19929;-72
2023/07/12 02:15:14;;;;;;;;;;;25.70;66.50;;;;;;5005743;28;19933;-71
2023/07/12 02:17:41;;;;;;;;;;;25.70;66.50;;;;;;4988187;28;20061;-71
2023/07/12 02:20:08;;;;;;;;;;;25.70;66.60;;;;;;4988356;28;19930;-71
2023/07/12 02:22:36;;;;;;;;;;;25.70;66.60;;;;;;4985788;28;19972;-71
2023/07/12 02:25:03;;;;;;;;;;;25.60;66.60;;;;;;4987315;28;19930;-71
2023/07/12 02:27:30;;;;;;;;;;;25.60;66.60;;;;;;4987717;28;19934;-68
2023/07/12 02:29:58;;;;;;;;;;;25.60;66.60;;;;;;4987463;28;19930;-72
2023/07/12 02:32:26;;;;;;;;;;;25.60;66.70;;;;;;5007147;28;19983;-71
2023/07/12 02:34:53;;;;;;;;;;;25.50;66.70;;;;;;5006771;28;20418;-71
2023/07/12 02:37:20;;;;;;;;;;;25.50;66.70;;;;;;5008974;28;20406;-71
2023/07/12 02:39:46;;;;;;;;;;;25.50;66.80;;;;;;5003505;28;20454;-71
2023/07/12 02:42:13;;;;;;;;;;;25.40;66.70;;;;;;5005954;28;19929;-71
2023/07/12 02:44:40;;;;;;;;;;;25.50;66.90;;;;;;5008598;28;19976;-71
2023/07/12 02:47:09;;;;;;;;;;;25.40;66.80;;;;;;4988171;28;20296;-71
2023/07/12 02:49:36;;;;;;;;;;;25.40;66.90;;;;;;4985036;28;19960;-71
2023/07/12 02:52:04;;;;;;;;;;;25.30;66.90;;;;;;4986222;28;19975;-71
2023/07/12 02:54:30;;;;;;;;;;;25.30;67.00;;;;;;4987236;28;19940;-71
2023/07/12 02:56:57;;;;;;;;;;;25.30;67.00;;;;;;4984165;28;19937;-71
2023/07/12 02:59:24;;;;;;;;;;;25.30;66.90;;;;;;4985042;28;19937;-71
2023/07/12 03:01:50;;;;;;;;;;;25.30;67.00;;;;;;4984911;28;20407;-71
2023/07/12 03:04:18;;;;;;;;;;;25.20;66.90;;;;;;4985624;28;19930;-70
2023/07/12 03:06:45;;;;;;;;;;;25.20;66.90;;;;;;4986168;28;20214;-71
2023/07/12 03:09:11;;;;;;;;;;;25.20;67.00;;;;;;4985798;28;19935;-71
2023/07/12 03:11:38;;;;;;;;;;;25.20;67.00;;;;;;4984175;28;20383;-71
2023/07/12 03:14:06;;;;;;;;;;;25.10;67.10;;;;;;4980037;28;19934;-71
2023/07/12 03:16:32;;;;;;;;;;;25.10;67.10;;;;;;4984249;28;20076;-71
2023/07/12 03:18:59;;;;;;;;;;;25.10;67.10;;;;;;4986052;28;19929;-71
2023/07/12 03:21:27;;;;;;;;;;;25.10;67.20;;;;;;4985900;28;20375;-71
2023/07/12 03:23:53;;;;;;;;;;;25.00;67.20;;;;;;4984968;28;19930;-70
2023/07/12 03:26:20;;;;;;;;;;;25.00;67.20;;;;;;4984990;28;19941;-71
2023/07/12 03:28:47;;;;;;;;;;;25.00;67.40;;;;;;4985451;28;19933;-71
2023/07/12 03:31:15;;;;;;;;;;;24.90;67.30;;;;;;4977220;28;20388;-70
2023/07/12 03:33:42;;;;;;;;;;;24.90;67.40;;;;;;4984189;28;20015;-72
2023/07/12 03:36:09;;;;;;;;;;;24.90;67.60;;;;;;4984815;28;20061;-71
2023/07/12 03:38:37;;;;;;;;;;;24.90;67.60;;;;;;4985986;28;20007;-72
2023/07/12 03:41:04;;;;;;;;;;;24.90;67.70;;;;;;4981505;28;19933;-71
2023/07/12 03:43:31;;;;;;;;;;;24.80;67.70;;;;;;4982855;28;20032;-71
2023/07/12 03:45:58;;;;;;;;;;;24.80;67.70;;;;;;4984012;28;19930;-71
2023/07/12 03:48:24;;;;;;;;;;;24.80;67.80;;;;;;4983939;28;19934;-71
2023/07/12 03:50:52;;;;;;;;;;;24.70;67.80;;;;;;4980544;28;19933;-71
2023/07/12 03:53:19;;;;;;;;;;;24.70;67.90;;;;;;4984749;28;19930;-71
2023/07/12 03:55:47;;;;;;;;;;;24.70;67.90;;;;;;4984273;28;19973;-72
2023/07/12 03:58:15;;;;;;;;;;;24.70;68.00;;;;;;4982238;28;20005;-71
2023/07/12 04:00:42;;;;;;;;;;;24.60;68.00;;;;;;4982320;28;20292;-72
2023/07/12 04:03:09;;;;;;;;;;;24.60;68.10;;;;;;4983181;28;20384;-71
2023/07/12 04:05:36;;;;;;;;;;;24.60;68.10;;;;;;4984213;28;19929;-71
2023/07/12 04:08:03;;;;;;;;;;;24.60;68.10;;;;;;4979795;28;19945;-71
2023/07/12 04:10:29;;;;;;;;;;;24.60;68.20;;;;;;4986616;28;20004;-71
2023/07/12 04:12:57;;;;;;;;;;;24.50;68.10;;;;;;4984642;28;19929;-71
2023/07/12 04:15:24;;;;;;;;;;;24.50;68.20;;;;;;4983336;28;19930;-71
2023/07/12 04:17:50;;;;;;;;;;;24.50;68.20;;;;;;4984892;28;20873;-71
2023/07/12 04:20:17;;;;;;;;;;;24.50;68.30;;;;;;4981401;28;19976;-72
2023/07/12 04:22:43;;;;;;;;;;;24.50;68.40;;;;;;4983070;28;20403;-72
2023/07/12 04:25:11;;;;;;;;;;;24.40;68.40;;;;;;4983346;28;19937;-71
2023/07/12 04:27:38;;;;;;;;;;;24.40;68.50;;;;;;4983536;28;19953;-71
2023/07/12 04:30:07;;;;;;;;;;;24.40;68.60;;;;;;4976894;28;19933;-71
2023/07/12 04:32:34;;;;;;;;;;;24.40;68.70;;;;;;4985043;28;19930;-70
2023/07/12 04:35:00;;;;;;;;;;;24.30;68.70;;;;;;4979317;28;19933;-71
2023/07/12 04:37:27;;;;;;;;;;;24.30;68.80;;;;;;4982899;28;19930;-71
2023/07/12 04:39:53;;;;;;;;;;;24.30;68.90;;;;;;4983466;28;19937;-71
2023/07/12 04:42:20;;;;;;;;;;;24.30;69.00;;;;;;4980604;28;20638;-70
2023/07/12 04:44:46;;;;;;;;;;;24.30;69.00;;;;;;4984615;28;20391;-72
2023/07/12 04:47:16;;;;;;;;;;;24.30;69.20;;;;;;4984289;28;19941;-71
2023/07/12 04:49:43;;;;;;;;;;;24.20;69.20;;;;;;4982604;28;19997;-71
2023/07/12 04:52:11;;;;;;;;;;;24.20;69.20;;;;;;4982130;28;19930;-71
2023/07/12 04:54:39;;;;;;;;;;;24.20;69.40;;;;;;4982952;28;20049;-71
2023/07/12 04:57:05;;;;;;;;;;;24.20;72.10;;;;;;4979384;28;19933;-74
2023/07/12 04:59:32;;;;;;;;;;;24.00;72.90;;;;;;4985268;28;19934;-74
2023/07/12 05:01:59;;;;;;;;;;;24.00;72.90;;;;;;4970872;28;19934;-75
2023/07/12 05:04:27;;;;;;;;;;;23.90;72.70;;;;;;4983387;28;19930;-74
2023/07/12 05:06:53;;;;;;;;;;;23.90;72.80;;;;;;4981962;28;19938;-74
2023/07/12 05:09:20;;;;;;;;;;;23.90;72.80;;;;;;4981692;28;19930;-73
2023/07/12 05:11:47;;;;;;;;;;;23.80;72.70;;;;;;4981844;28;20029;-74
2023/07/12 05:14:14;;;;;;;;;;;23.80;72.70;;;;;;4977083;28;19985;-73
2023/07/12 05:16:40;;;;;;;;;;;23.90;72.70;;;;;;4982742;28;19937;-73
2023/07/12 05:19:07;;;;;;;;;;;23.90;72.70;;;;;;4983928;28;19930;-74
2023/07/12 05:21:35;;;;;;;;;;;23.80;72.70;;;;;;4984522;28;19930;-73
2023/07/12 05:24:02;;;;;;;;;;;23.80;72.70;;;;;;4982336;28;19930;-73
2023/07/12 05:26:28;;;;;;;;;;;23.80;72.70;;;;;;4984476;28;19926;-72
2023/07/12 05:28:55;;;;;;;;;;;23.80;72.70;;;;;;4980789;28;21017;-73
2023/07/12 05:31:21;;;;;;;;;;;23.80;72.80;;;;;;4983308;28;19934;-73
2023/07/12 05:33:48;;;;;;;;;;;23.80;72.70;;;;;;4975035;28;19929;-73
2023/07/12 05:36:15;;;;;;;;;;;23.80;72.90;;;;;;4978640;28;19937;-73
2023/07/12 05:38:42;;;;;;;;;;;23.80;72.90;;;;;;4981201;28;20000;-72
2023/07/12 05:41:09;;;;;;;;;;;23.80;73.00;;;;;;4984840;28;20354;-72
2023/07/12 05:43:36;;;;;;;;;;;23.80;73.00;;;;;;4983578;28;19988;-72
2023/07/12 05:46:03;;;;;;;;;;;23.80;73.00;;;;;;4978306;28;20479;-72
2023/07/12 05:48:29;;;;;;;;;;;23.80;73.00;;;;;;4977553;28;19969;-73
2023/07/12 05:50:59;;;;;;;;;;;23.80;73.00;;;;;;4984280;28;19945;-72
2023/07/12 05:53:26;;;;;;;;;;;23.80;73.30;;;;;;4987680;28;19930;-72
2023/07/12 05:55:56;;;;;;;;;;;23.80;73.30;;;;;;4984607;28;19998;-73
2023/07/12 05:58:22;;;;;;;;;;;23.70;73.40;;;;;;4987426;28;19981;-71
2023/07/12 06:00:49;;;;;;;;;;;23.70;73.50;;;;;;4976815;28;19937;-72
2023/07/12 06:03:15;;;;;;;;;;;23.70;73.70;;;;;;4977665;28;20391;-73
2023/07/12 06:05:44;;;;;;;;;;;23.70;73.80;;;;;;4985158;28;19933;-72
2023/07/12 06:08:11;;;;;;;;;;;23.70;73.80;;;;;;4980100;28;19937;-72
2023/07/12 06:10:37;;;;;;;;;;;23.70;73.80;;;;;;4986503;28;20049;-73
2023/07/12 06:13:05;;;;;;;;;;;23.70;73.90;;;;;;4983066;28;20362;-72
2023/07/12 06:15:32;;;;;;;;;;;23.70;73.80;;;;;;4983339;28;19930;-73
2023/07/12 06:17:58;;;;;;;;;;;23.70;73.90;;;;;;4986678;28;19937;-72
2023/07/12 06:20:25;;;;;;;;;;;23.70;73.90;;;;;;4981231;28;20312;-72
2023/07/12 06:22:51;;;;;;;;;;;23.70;73.90;;;;;;4978495;28;19933;-72
2023/07/12 06:25:18;;;;;;;;;;;23.70;73.90;;;;;;4984988;28;20594;-73
2023/07/12 06:27:44;;;;;;;;;;;23.70;73.90;;;;;;4982846;28;19976;-72
2023/07/12 06:30:12;;;;;;;;;;;23.70;73.90;;;;;;4983951;28;20013;-73
2023/07/12 06:32:39;;;;;;;;;;;23.70;74.10;;;;;;4986928;28;19930;-73
2023/07/12 06:35:06;;;;;;;;;;;23.70;74.10;;;;;;4982012;28;19976;-73
2023/07/12 06:37:32;;;;;;;;;;;23.70;74.00;;;;;;4982298;28;19940;-73
2023/07/12 06:39:59;;;;;;;;;;;23.70;74.10;;;;;;4983395;28;19934;-72
2023/07/12 06:42:26;;;;;;;;;;;23.70;74.10;;;;;;4985880;28;19945;-73
2023/07/12 06:44:52;;;;;;;;;;;23.70;74.30;;;;;;4987338;28;19992;-73
2023/07/12 06:47:20;;;;;;;;;;;23.70;74.30;;;;;;4986164;28;20176;-73
2023/07/12 06:49:47;;;;;;;;;;;23.70;74.20;;;;;;4984342;28;20293;-73
2023/07/12 06:52:13;;;;;;;;;;;23.70;74.30;;;;;;4986253;28;19940;-73
2023/07/12 06:54:40;;;;;;;;;;;23.70;74.30;;;;;;4983387;28;20604;-73
2023/07/12 06:57:06;;;;;;;;;;;23.70;74.30;;;;;;4979609;28;19930;-73
2023/07/12 06:59:33;;;;;;;;;;;23.70;74.40;;;;;;4981329;28;20466;-74
2023/07/12 07:01:59;;;;;;;;;;;23.70;74.50;;;;;;4985531;28;19934;-74
2023/07/12 07:04:27;;;;;;;;;;;23.70;74.50;;;;;;4983746;28;19930;-73
2023/07/12 07:06:54;;;;;;;;;;;23.70;74.50;;;;;;4988860;28;20028;-73
2023/07/12 07:09:21;;;;;;;;;;;23.70;74.50;;;;;;4974188;28;19930;-73
2023/07/12 07:11:47;;;;;;;;;;;23.70;74.40;;;;;;4986150;28;19933;-74
2023/07/12 07:14:14;;;;;;;;;;;23.70;74.40;;;;;;4983350;28;19992;-74
2023/07/12 07:16:41;;;;;;;;;;;23.70;74.40;;;;;;4980287;28;20008;-73
2023/07/12 07:19:08;;;;;;;;;;;23.80;74.30;;;;;;4978488;28;19989;-73
2023/07/12 07:21:36;;;;;;;;;;;23.70;74.30;;;;;;4982906;28;19930;-74
2023/07/12 07:24:02;;;;;;;;;;;23.80;74.30;;;;;;4976516;28;19934;-72
2023/07/12 07:26:29;;;;;;;;;;;23.80;74.20;;;;;;4986043;28;20510;-73
2023/07/12 07:28:55;;;;;;;;;;;23.80;74.20;;;;;;4983809;28;20474;-73
2023/07/12 07:31:22;;;;;;;;;;;23.80;74.10;;;;;;4983806;28;19970;-73
2023/07/12 07:33:48;;;;;;;;;;;23.80;74.00;;;;;;4982124;28;19934;-73
2023/07/12 07:36:15;;;;;;;;;;;23.80;73.90;;;;;;4985814;28;19936;-73
2023/07/12 07:38:43;;;;;;;;;;;23.90;73.90;;;;;;4982910;28;20676;-73
2023/07/12 07:41:12;;;;;;;;;;;23.90;73.90;;;;;;4984140;28;19930;-73
2023/07/12 07:43:39;;;;;;;;;;;23.90;73.80;;;;;;4985520;28;19933;-74
2023/07/12 07:46:06;;;;;;;;;;;23.90;73.90;;;;;;4985383;28;19933;-73
2023/07/12 07:48:32;;;;;;;;;;;24.00;73.80;;;;;;4985089;28;19930;-73
2023/07/12 07:50:59;;;;;;;;;;;24.00;73.80;;;;;;4984662;28;19934;-74
2023/07/12 07:53:26;;;;;;;;;;;24.00;73.80;;;;;;4985866;28;19937;-72
2023/07/12 07:55:54;;;;;;;;;;;24.00;73.90;;;;;;4980775;28;19937;-73
2023/07/12 07:58:20;;;;;;;;;;;24.00;73.80;;;;;;4983335;28;20011;-74
2023/07/12 08:00:47;;;;;;;;;;;24.10;73.80;;;;;;4985675;28;19992;-73
2023/07/12 08:03:14;;;;;;;;;;;24.00;73.60;;;;;;4985586;28;19934;-73
2023/07/12 08:05:40;;;;;;;;;;;24.10;73.40;;;;;;4980825;28;19937;-73
2023/07/12 08:08:07;;;;;;;;;;;24.20;73.30;;;;;;4985499;28;20012;-73
2023/07/12 08:10:35;;;;;;;;;;;24.20;73.20;;;;;;4984393;28;20006;-73
2023/07/12 08:13:03;;;;;;;;;;;24.20;73.10;;;;;;4977247;28;20347;-73
2023/07/12 08:15:30;;;;;;;;;;;24.20;72.80;;;;;;4975769;28;19933;-74
2023/07/12 08:17:56;;;;;;;;;;;24.30;72.70;;;;;;4984460;28;19934;-74
2023/07/12 08:20:24;;;;;;;;;;;24.20;72.40;;;;;;4985262;28;20049;-73
2023/07/12 08:22:51;;;;;;;;;;;24.30;72.30;;;;;;4979846;28;19934;-72
2023/07/12 08:25:18;;;;;;;;;;;24.30;72.10;;;;;;4981744;28;20536;-73
2023/07/12 08:27:44;;;;;;;;;;;24.30;71.90;;;;;;4982672;28;19940;-73
2023/07/12 08:30:13;;;;;;;;;;;24.40;71.80;;;;;;4983548;28;19929;-73
2023/07/12 08:32:40;;;;;;;;;;;24.40;71.60;;;;;;4984789;28;19930;-74
2023/07/12 08:35:07;;;;;;;;;;;24.40;71.40;;;;;;4985407;28;19941;-73
2023/07/12 08:37:34;;;;;;;;;;;24.50;71.40;;;;;;4984364;28;19937;-74
2023/07/12 08:40:00;;;;;;;;;;;24.50;71.40;;;;;;4983035;28;19937;-72
2023/07/12 08:42:28;;;;;;;;;;;24.50;71.00;;;;;;4984666;28;19930;-73
2023/07/12 08:44:57;;;;;;;;;;;24.50;70.90;;;;;;4980414;28;19934;-73
2023/07/12 08:47:27;;;;;;;;;;;24.50;70.60;;;;;;4981865;28;19937;-73
2023/07/12 08:49:54;;;;;;;;;;;24.60;70.30;;;;;;4984197;28;19992;-73
2023/07/12 08:52:22;;;;;;;;;;;24.60;70.10;;;;;;4984513;28;19930;-74
2023/07/12 08:54:49;;;;;;;;;;;24.60;69.60;;;;;;4985457;28;19930;-73
2023/07/12 08:57:17;;;;;;;;;;;24.70;69.00;;;;;;4979470;28;20443;-73
2023/07/12 08:59:45;;;;;;;;;;;24.70;68.40;;;;;;4975079;28;20438;-73
2023/07/12 09:02:17;;;;;;;;;;;24.70;68.40;;;;;;4984613;28;19933;-74
2023/07/12 09:04:45;;;;;;;;;;;24.70;68.30;;;;;;4978529;28;20316;-73
2023/07/12 09:07:11;;;;;;;;;;;24.80;68.20;;;;;;4988237;28;19930;-73
2023/07/12 09:09:39;;;;;;;;;;;24.80;67.70;;;;;;4981919;28;19989;-73
2023/07/12 09:12:07;;;;;;;;;;;24.90;67.50;;;;;;4985101;28;20789;-73
2023/07/12 09:14:35;;;;;;;;;;;24.90;67.40;;;;;;4983610;28;19941;-73
2023/07/12 09:17:02;;;;;;;;;;;24.90;66.70;;;;;;4980482;28;19929;-72
2023/07/12 09:19:31;;;;;;;;;;;24.90;66.70;;;;;;4982516;28;19925;-73
2023/07/12 09:22:00;;;;;;;;;;;25.00;66.40;;;;;;4984972;28;19936;-73
2023/07/12 09:24:28;;;;;;;;;;;25.00;66.00;;;;;;4981847;28;19980;-73
2023/07/12 09:27:02;;;;;;;;;;;25.10;65.70;;;;;;4985749;28;20034;-73
2023/07/12 09:29:31;;;;;;;;;;;25.10;65.40;;;;;;4987073;28;20843;-72
2023/07/12 09:32:00;;;;;;;;;;;25.10;65.20;;;;;;4986807;28;19934;-73
2023/07/12 09:34:34;;;;;;;;;;;25.20;65.20;;;;;;4983555;28;20025;-72
2023/07/12 09:37:02;;;;;;;;;;;25.20;65.00;;;;;;4985831;28;19933;-74
2023/07/12 09:39:28;;;;;;;;;;;25.30;64.90;;;;;;4988033;28;19930;-74
2023/07/12 09:41:56;;;;;;;;;;;25.30;64.80;;;;;;4987984;28;19933;-73
2023/07/12 09:44:22;;;;;;;;;;;25.40;64.40;;;;;;4982153;28;19929;-73
2023/07/12 09:46:50;;;;;;;;;;;25.40;63.90;;;;;;4977052;28;19930;-74
2023/07/12 09:49:19;;;;;;;;;;;25.50;63.80;;;;;;4988340;28;19929;-73
2023/07/12 09:51:50;;;;;;;;;;;25.50;63.40;;;;;;4984643;28;20409;-73
2023/07/12 09:54:25;;;;;;;;;;;25.60;63.30;;;;;;4988711;28;19934;-73
2023/07/12 09:56:54;;;;;;;;;;;25.60;62.50;;;;;;4983230;28;19945;-72
2023/07/12 09:59:27;;;;;;;;;;;25.70;62.60;;;;;;4990594;28;19929;-73
2023/07/12 10:01:54;;;;;;;;;;;25.70;62.20;;;;;;4978931;28;20458;-73
2023/07/12 10:04:36;;;;;;;;;;;25.80;62.00;;;;;;4988778;28;20013;-74
2023/07/12 10:07:04;;;;;;;;;;;25.80;61.80;;;;;;4984460;28;21733;-73
2023/07/12 10:09:34;;;;;;;;;;;25.90;61.70;;;;;;4987911;28;19929;-73
2023/07/12 10:12:05;;;;;;;;;;;25.90;61.50;;;;;;4985854;28;19980;-74
2023/07/12 10:14:33;;;;;;;;;;;26.00;61.40;;;;;;4986953;28;19929;-73
2023/07/12 10:17:00;;;;;;;;;;;26.00;60.70;;;;;;4985607;28;19929;-73
2023/07/12 10:19:28;;;;;;;;;;;26.10;60.50;;;;;;4987242;28;20539;-73
2023/07/12 10:21:57;;;;;;;;;;;26.20;60.40;;;;;;4985024;28;20658;-74
2023/07/12 10:24:28;;;;;;;;;;;26.20;60.10;;;;;;4980364;28;20437;-73
2023/07/12 10:26:57;;;;;;;;;;;26.20;59.60;;;;;;4980031;28;19930;-74
2023/07/12 10:29:26;;;;;;;;;;;26.30;59.20;;;;;;4980480;28;19961;-74
2023/07/12 10:31:55;;;;;;;;;;;26.40;59.10;;;;;;4987356;28;19930;-72
2023/07/12 10:34:24;;;;;;;;;;;26.40;58.50;;;;;;4978976;28;19965;-73
2023/07/12 10:36:51;;;;;;;;;;;26.50;58.30;;;;;;4986832;28;19984;-74
2023/07/12 10:39:18;;;;;;;;;;;26.60;58.30;;;;;;4987235;28;19926;-73
2023/07/12 10:41:46;;;;;;;;;;;26.60;58.10;;;;;;4981940;28;20368;-74
2023/07/12 10:44:19;;;;;;;;;;;26.60;57.90;;;;;;4984833;28;19933;-73
2023/07/12 10:46:47;;;;;;;;;;;26.70;57.80;;;;;;4987067;28;19934;-74
2023/07/12 10:49:15;;;;;;;;;;;26.80;57.40;;;;;;4985556;28;20419;-75
2023/07/12 10:51:43;;;;;;;;;;;26.90;57.10;;;;;;4985392;28;20354;-75
2023/07/12 10:54:38;;;;;;;;;;;27.00;56.70;;;;;;4976890;28;20423;-75
2023/07/12 10:57:05;;;;;;;;;;;27.00;56.80;;;;;;4982204;28;19930;-75
2023/07/12 10:59:44;;;;;;;;;;;27.10;56.90;;;;;;4986334;28;19933;-74
2023/07/12 11:02:20;;;;;;;;;;;27.10;56.50;;;;;;4986574;28;20023;-75
2023/07/12 11:04:47;;;;;;;;;;;27.20;56.40;;;;;;4985675;28;19930;-74
2023/07/12 11:07:30;;;;;;;;;;;27.20;56.30;;;;;;4991423;28;20339;-74
2023/07/12 11:10:15;;;;;;;;;;;27.30;56.00;;;;;;4986510;28;19937;-75
2023/07/12 11:12:46;;;;;;;;;;;27.30;56.00;;;;;;4981168;28;19960;-74
2023/07/12 11:15:24;;;;;;;;;;;27.40;55.80;;;;;;4981712;28;19933;-75
2023/07/12 11:17:54;;;;;;;;;;;27.40;55.70;;;;;;4984302;28;21006;-76
2023/07/12 11:20:22;;;;;;;;;;;27.40;55.60;;;;;;4986578;28;19939;-75
2023/07/12 11:22:56;;;;;;;;;;;27.50;55.60;;;;;;4985016;28;19984;-74
2023/07/12 11:25:25;;;;;;;;;;;27.50;55.20;;;;;;4986829;28;19929;-74
2023/07/12 11:27:56;;;;;;;;;;;27.50;55.30;;;;;;4984184;28;19930;-74
2023/07/12 11:30:26;;;;;;;;;;;27.60;55.30;;;;;;4977604;28;20398;-74
2023/07/12 11:32:56;;;;;;;;;;;27.60;55.10;;;;;;4980556;28;19937;-74
2023/07/12 11:35:30;;;;;;;;;;;27.70;54.80;;;;;;4987129;28;20296;-74
2023/07/12 11:37:57;;;;;;;;;;;27.80;55.00;;;;;;4984406;28;19933;-73
2023/07/12 11:40:25;;;;;;;;;;;27.80;55.00;;;;;;4985590;28;19953;-74
2023/07/12 11:42:51;;;;;;;;;;;27.80;54.40;;;;;;4984878;28;20611;-74
2023/07/12 11:45:20;;;;;;;;;;;27.90;54.60;;;;;;4982666;28;19933;-74
2023/07/12 11:47:49;;;;;;;;;;;28.00;54.40;;;;;;4983662;28;19965;-74
2023/07/12 11:50:19;;;;;;;;;;;28.00;54.30;;;;;;4979919;28;20021;-74
2023/07/12 11:52:45;;;;;;;;;;;28.00;54.30;;;;;;4985726;28;19936;-74
2023/07/12 11:55:14;;;;;;;;;;;28.10;53.80;;;;;;4986161;28;19930;-74
2023/07/12 11:57:41;;;;;;;;;;;28.10;54.00;;;;;;4979599;28;19964;-73
2023/07/12 12:00:14;;;;;;;;;;;28.20;53.80;;;;;;4985319;28;19941;-74
2023/07/12 12:02:41;;;;;;;;;;;28.20;53.60;;;;;;4983275;28;19933;-72
2023/07/12 12:05:16;;;;;;;;;;;28.20;53.90;;;;;;4977908;28;20613;-74
2023/07/12 12:07:43;;;;;;;;;;;28.20;53.70;;;;;;4981862;28;19937;-73
2023/07/12 12:10:18;;;;;;;;;;;28.30;53.60;;;;;;4986531;28;19936;-75
2023/07/12 12:12:47;;;;;;;;;;;28.40;53.60;;;;;;4982692;28;20090;-74
2023/07/12 12:15:17;;;;;;;;;;;28.40;53.50;;;;;;4975308;28;19937;-74
2023/07/12 12:17:44;;;;;;;;;;;28.40;53.30;;;;;;4981553;28;19934;-74
2023/07/12 12:20:14;;;;;;;;;;;28.50;53.30;;;;;;4983487;28;19936;-74
2023/07/12 12:22:42;;;;;;;;;;;28.40;53.20;;;;;;4983617;28;19937;-74
2023/07/12 12:25:16;;;;;;;;;;;28.50;53.50;;;;;;4985704;28;19934;-75
2023/07/12 12:27:44;;;;;;;;;;;28.50;53.70;;;;;;4983976;28;19937;-74
2023/07/12 12:30:18;;;;;;;;;;;28.50;53.50;;;;;;4985191;28;19930;-74
2023/07/12 12:32:55;;;;;;;;;;;28.50;53.40;;;;;;4983622;28;19930;-74
2023/07/12 12:35:22;;;;;;;;;;;28.50;53.00;;;;;;4979430;28;20036;-74
2023/07/12 12:37:55;;;;;;;;;;;28.60;52.60;;;;;;4981813;28;19960;-74
2023/07/12 12:40:22;;;;;;;;;;;28.60;52.50;;;;;;4984638;28;20498;-74
2023/07/12 12:42:53;;;;;;;;;;;28.70;52.30;;;;;;4984433;28;20355;-74
2023/07/12 12:45:19;;;;;;;;;;;28.70;51.60;;;;;;4985275;28;20567;-74
2023/07/12 12:47:47;;;;;;;;;;;28.70;52.10;;;;;;4982810;28;19984;-74
2023/07/12 12:50:18;;;;;;;;;;;28.80;52.10;;;;;;4984165;28;19930;-75
2023/07/12 12:52:45;;;;;;;;;;;28.90;51.50;;;;;;4982464;28;19939;-74
2023/07/12 12:55:13;;;;;;;;;;;28.90;51.50;;;;;;4985224;28;20025;-75
2023/07/12 12:57:40;;;;;;;;;;;29.00;51.50;;;;;;4981921;28;20554;-74
2023/07/12 13:00:11;;;;;;;;;;;29.00;51.80;;;;;;4984210;28;19988;-75
2023/07/12 13:02:38;;;;;;;;;;;29.00;51.30;;;;;;4982150;28;19929;-74
2023/07/12 13:05:05;;;;;;;;;;;29.00;51.50;;;;;;4988169;28;20007;-74
2023/07/12 13:07:33;;;;;;;;;;;29.00;50.60;;;;;;4984270;28;20008;-74
2023/07/12 13:10:00;;;;;;;;;;;29.10;50.40;;;;;;4983514;28;19934;-75
2023/07/12 13:12:28;;;;;;;;;;;29.10;50.90;;;;;;4986569;28;20407;-74
2023/07/12 13:14:55;;;;;;;;;;;29.10;50.40;;;;;;4979633;28;19930;-74
2023/07/12 13:17:23;;;;;;;;;;;29.10;50.00;;;;;;4988380;28;19930;-74
2023/07/12 13:19:50;;;;;;;;;;;29.20;50.20;;;;;;4986992;28;19984;-74
2023/07/12 13:22:18;;;;;;;;;;;29.20;50.10;;;;;;4989312;28;19930;-74
2023/07/12 13:24:45;;;;;;;;;;;29.20;50.10;;;;;;4981379;28;20045;-73
2023/07/12 13:27:20;;;;;;;;;;;29.20;50.30;;;;;;4988591;28;20355;-74
2023/07/12 13:29:48;;;;;;;;;;;29.20;50.00;;;;;;4984801;28;19930;-74
2023/07/12 13:32:15;;;;;;;;;;;29.20;49.80;;;;;;4987400;28;20288;-74
2023/07/12 13:34:42;;;;;;;;;;;29.20;50.20;;;;;;4988521;28;19930;-73
2023/07/12 13:37:13;;;;;;;;;;;29.30;50.10;;;;;;4988294;28;20762;-74
2023/07/12 13:39:40;;;;;;;;;;;29.30;50.00;;;;;;4985859;28;19934;-73
2023/07/12 13:42:09;;;;;;;;;;;29.30;49.60;;;;;;4983720;28;19961;-74
2023/07/12 13:44:35;;;;;;;;;;;29.40;49.70;;;;;;4988290;28;19930;-74
2023/07/12 13:47:10;;;;;;;;;;;29.40;49.70;;;;;;4986992;28;19937;-74
2023/07/12 13:49:37;;;;;;;;;;;29.40;49.30;;;;;;4984844;28;20016;-74
2023/07/12 13:52:04;;;;;;;;;;;29.40;48.80;;;;;;4987999;28;19934;-75
2023/07/12 13:54:30;;;;;;;;;;;29.40;48.40;;;;;;4982279;28;19937;-74
2023/07/12 13:56:58;;;;;;;;;;;29.50;48.80;;;;;;4981426;28;19945;-73
2023/07/12 13:59:25;;;;;;;;;;;29.50;49.10;;;;;;4992592;28;19936;-74
2023/07/12 14:01:51;;;;;;;;;;;29.50;48.20;;;;;;4988541;28;19934;-73
2023/07/12 14:04:20;;;;;;;;;;;29.40;48.60;;;;;;4988155;28;19929;-73
2023/07/12 14:06:47;;;;;;;;;;;29.50;47.90;;;;;;4987490;28;20028;-74
2023/07/12 14:09:14;;;;;;;;;;;29.50;48.10;;;;;;4988173;28;19956;-73
2023/07/12 14:11:40;;;;;;;;;;;29.50;47.80;;;;;;4986974;28;20351;-74
2023/07/12 14:14:11;;;;;;;;;;;29.60;48.00;;;;;;4984079;28;20311;-73
2023/07/12 14:16:38;;;;;;;;;;;29.60;47.60;;;;;;4981108;28;19929;-73
2023/07/12 14:19:04;;;;;;;;;;;29.60;47.00;;;;;;4987300;28;20351;-74
2023/07/12 14:21:33;;;;;;;;;;;29.60;46.90;;;;;;4983752;28;19989;-74